sensor_id;sensor_type;location;lat;lon;timestamp;pressure;altitude;pressure_sealevel;temperature;humidity
38806;BME280;25635;51.146;17.162;2024-02-26T00:02:06;99055.20;;;0.98;87.09
38806;BME280;25635;51.146;17.162;2024-02-26T00:04:32;99057.95;;;0.99;87.49
38806;BME280;25635;51.146;17.162;2024-02-26T00:06:58;99057.46;;;1.00;87.74
38806;BME280;25635;51.146;17.162;2024-02-26T00:09:25;99055.56;;;0.99;88.17
38806;BME280;25635;51.146;17.162;2024-02-26T00:11:51;99051.90;;;0.96;88.44
38806;BME280;25635;51.146;17.162;2024-02-26T00:14:17;99052.70;;;0.92;88.60
38806;BME280;25635;51.146;17.162;2024-02-26T00:16:43;99050.64;;;0.90;88.83
38806;BME280;25635;51.146;17.162;2024-02-26T00:19:11;99046.13;;;0.87;88.85
38806;BME280;25635;51.146;17.162;2024-02-26T00:21:40;99045.40;;;0.84;89.03
38806;BME280;25635;51.146;17.162;2024-02-26T00:24:07;99039.72;;;0.82;89.32
38806;BME280;25635;51.146;17.162;2024-02-26T00:26:34;99040.21;;;0.81;89.62
38806;BME280;25635;51.146;17.162;2024-02-26T00:29:00;99036.95;;;0.80;88.72
38806;BME280;25635;51.146;17.162;2024-02-26T00:31:26;99038.66;;;0.80;88.49
38806;BME280;25635;51.146;17.162;2024-02-26T00:33:52;99040.20;;;0.79;88.86
38806;BME280;25635;51.146;17.162;2024-02-26T00:36:18;99039.16;;;0.78;88.24
38806;BME280;25635;51.146;17.162;2024-02-26T00:38:44;99041.21;;;0.78;87.71
38806;BME280;25635;51.146;17.162;2024-02-26T00:41:17;99042.11;;;0.82;88.22
38806;BME280;25635;51.146;17.162;2024-02-26T00:43:43;99040.27;;;0.85;88.72
38806;BME280;25635;51.146;17.162;2024-02-26T00:46:09;99045.61;;;0.87;88.34
38806;BME280;25635;51.146;17.162;2024-02-26T00:48:36;99046.65;;;0.88;88.61
38806;BME280;25635;51.146;17.162;2024-02-26T00:51:03;99046.14;;;0.87;88.55
38806;BME280;25635;51.146;17.162;2024-02-26T00:53:33;99044.58;;;0.87;88.62
38806;BME280;25635;51.146;17.162;2024-02-26T00:56:00;99041.46;;;0.85;88.62
38806;BME280;25635;51.146;17.162;2024-02-26T00:58:26;99038.02;;;0.84;88.56
38806;BME280;25635;51.146;17.162;2024-02-26T01:00:52;99034.95;;;0.85;89.01
38806;BME280;25635;51.146;17.162;2024-02-26T01:03:18;99035.29;;;0.86;89.17
38806;BME280;25635;51.146;17.162;2024-02-26T01:05:45;99035.81;;;0.85;89.06
38806;BME280;25635;51.146;17.162;2024-02-26T01:08:11;99033.58;;;0.87;89.13
38806;BME280;25635;51.146;17.162;2024-02-26T01:10:37;99031.21;;;0.88;89.04
38806;BME280;25635;51.146;17.162;2024-02-26T01:13:03;99025.91;;;0.89;89.17
38806;BME280;25635;51.146;17.162;2024-02-26T01:15:30;99024.73;;;0.92;89.11
38806;BME280;25635;51.146;17.162;2024-02-26T01:17:56;99021.48;;;0.93;89.29
38806;BME280;25635;51.146;17.162;2024-02-26T01:20:23;99020.14;;;0.95;89.25
38806;BME280;25635;51.146;17.162;2024-02-26T01:22:49;99017.22;;;0.95;89.51
38806;BME280;25635;51.146;17.162;2024-02-26T01:25:15;99013.45;;;0.95;89.85
38806;BME280;25635;51.146;17.162;2024-02-26T01:27:41;99011.90;;;0.94;89.78
38806;BME280;25635;51.146;17.162;2024-02-26T01:30:10;99014.46;;;0.94;89.48
38806;BME280;25635;51.146;17.162;2024-02-26T01:32:36;99016.34;;;0.94;89.57
38806;BME280;25635;51.146;17.162;2024-02-26T01:35:03;99012.22;;;0.93;89.45
38806;BME280;25635;51.146;17.162;2024-02-26T01:37:29;99013.26;;;0.94;89.26
38806;BME280;25635;51.146;17.162;2024-02-26T01:39:58;99014.30;;;0.94;89.22
38806;BME280;25635;51.146;17.162;2024-02-26T01:42:24;99012.75;;;0.93;89.01
38806;BME280;25635;51.146;17.162;2024-02-26T01:44:53;99011.36;;;0.92;88.91
38806;BME280;25635;51.146;17.162;2024-02-26T01:47:20;99011.52;;;0.91;89.34
38806;BME280;25635;51.146;17.162;2024-02-26T01:49:46;99009.09;;;0.90;88.98
38806;BME280;25635;51.146;17.162;2024-02-26T01:52:13;99008.22;;;0.89;88.99
38806;BME280;25635;51.146;17.162;2024-02-26T01:54:40;99007.01;;;0.88;89.04
38806;BME280;25635;51.146;17.162;2024-02-26T01:57:08;99005.44;;;0.85;88.99
38806;BME280;25635;51.146;17.162;2024-02-26T01:59:35;99003.17;;;0.84;89.05
38806;BME280;25635;51.146;17.162;2024-02-26T02:02:07;99002.96;;;0.80;89.12
38806;BME280;25635;51.146;17.162;2024-02-26T02:04:34;99007.23;;;0.79;89.08
38806;BME280;25635;51.146;17.162;2024-02-26T02:07:01;99002.42;;;0.77;89.20
38806;BME280;25635;51.146;17.162;2024-02-26T02:09:28;99002.91;;;0.75;89.08
38806;BME280;25635;51.146;17.162;2024-02-26T02:11:54;99003.23;;;0.73;89.11
38806;BME280;25635;51.146;17.162;2024-02-26T02:14:22;99000.82;;;0.73;89.06
38806;BME280;25635;51.146;17.162;2024-02-26T02:16:48;99000.64;;;0.73;88.95
38806;BME280;25635;51.146;17.162;2024-02-26T02:19:14;98999.13;;;0.73;88.98
38806;BME280;25635;51.146;17.162;2024-02-26T02:21:41;98993.96;;;0.73;89.11
38806;BME280;25635;51.146;17.162;2024-02-26T02:24:07;98991.04;;;0.72;89.08
38806;BME280;25635;51.146;17.162;2024-02-26T02:26:34;98995.81;;;0.70;89.02
38806;BME280;25635;51.146;17.162;2024-02-26T02:29:00;98996.98;;;0.67;88.98
38806;BME280;25635;51.146;17.162;2024-02-26T02:31:28;98998.31;;;0.65;89.07
38806;BME280;25635;51.146;17.162;2024-02-26T02:33:54;98996.74;;;0.62;89.28
38806;BME280;25635;51.146;17.162;2024-02-26T02:36:21;98997.56;;;0.59;89.06
38806;BME280;25635;51.146;17.162;2024-02-26T02:38:51;98994.61;;;0.57;89.24
38806;BME280;25635;51.146;17.162;2024-02-26T02:41:18;98994.93;;;0.54;89.47
38806;BME280;25635;51.146;17.162;2024-02-26T02:43:45;98997.13;;;0.52;89.39
38806;BME280;25635;51.146;17.162;2024-02-26T02:46:11;98994.86;;;0.49;89.59
38806;BME280;25635;51.146;17.162;2024-02-26T02:48:38;98993.27;;;0.46;89.66
38806;BME280;25635;51.146;17.162;2024-02-26T02:51:04;98996.86;;;0.44;90.03
38806;BME280;25635;51.146;17.162;2024-02-26T02:53:31;99002.52;;;0.45;89.96
38806;BME280;25635;51.146;17.162;2024-02-26T02:55:57;98999.76;;;0.44;89.65
38806;BME280;25635;51.146;17.162;2024-02-26T02:58:23;98994.23;;;0.42;89.70
38806;BME280;25635;51.146;17.162;2024-02-26T03:00:50;98996.77;;;0.39;89.53
38806;BME280;25635;51.146;17.162;2024-02-26T03:03:16;98994.34;;;0.36;89.99
38806;BME280;25635;51.146;17.162;2024-02-26T03:05:43;98995.48;;;0.33;90.18
38806;BME280;25635;51.146;17.162;2024-02-26T03:08:09;98996.80;;;0.28;90.27
38806;BME280;25635;51.146;17.162;2024-02-26T03:10:35;98997.62;;;0.25;90.01
38806;BME280;25635;51.146;17.162;2024-02-26T03:13:02;98998.46;;;0.24;89.81
38806;BME280;25635;51.146;17.162;2024-02-26T03:15:28;98994.48;;;0.22;89.63
38806;BME280;25635;51.146;17.162;2024-02-26T03:17:55;98992.59;;;0.21;89.60
38806;BME280;25635;51.146;17.162;2024-02-26T03:20:21;98995.51;;;0.21;89.54
38806;BME280;25635;51.146;17.162;2024-02-26T03:22:47;98994.15;;;0.22;89.79
38806;BME280;25635;51.146;17.162;2024-02-26T03:25:13;98992.65;;;0.25;89.75
38806;BME280;25635;51.146;17.162;2024-02-26T03:27:40;98992.86;;;0.28;89.90
38806;BME280;25635;51.146;17.162;2024-02-26T03:30:07;98991.15;;;0.29;90.40
38806;BME280;25635;51.146;17.162;2024-02-26T03:32:33;98992.70;;;0.29;90.29
38806;BME280;25635;51.146;17.162;2024-02-26T03:35:00;98991.85;;;0.30;90.08
38806;BME280;25635;51.146;17.162;2024-02-26T03:37:26;98988.24;;;0.29;90.14
38806;BME280;25635;51.146;17.162;2024-02-26T03:39:53;98991.50;;;0.29;90.30
38806;BME280;25635;51.146;17.162;2024-02-26T03:42:19;98990.27;;;0.27;90.40
38806;BME280;25635;51.146;17.162;2024-02-26T03:44:46;98988.72;;;0.26;90.55
38806;BME280;25635;51.146;17.162;2024-02-26T03:47:12;98987.17;;;0.27;90.97
38806;BME280;25635;51.146;17.162;2024-02-26T03:49:41;98987.00;;;0.27;91.04
38806;BME280;25635;51.146;17.162;2024-02-26T03:52:07;98986.52;;;0.28;91.02
38806;BME280;25635;51.146;17.162;2024-02-26T03:54:34;98986.17;;;0.29;91.04
38806;BME280;25635;51.146;17.162;2024-02-26T03:57:01;98983.64;;;0.31;91.02
38806;BME280;25635;51.146;17.162;2024-02-26T03:59:27;98981.95;;;0.33;91.11
38806;BME280;25635;51.146;17.162;2024-02-26T04:01:53;98983.53;;;0.36;91.18
38806;BME280;25635;51.146;17.162;2024-02-26T04:04:20;98979.83;;;0.40;91.04
38806;BME280;25635;51.146;17.162;2024-02-26T04:06:46;98979.88;;;0.44;91.04
38806;BME280;25635;51.146;17.162;2024-02-26T04:09:14;98979.40;;;0.47;91.04
38806;BME280;25635;51.146;17.162;2024-02-26T04:11:40;98978.38;;;0.47;91.21
38806;BME280;25635;51.146;17.162;2024-02-26T04:14:09;98981.45;;;0.47;91.32
38806;BME280;25635;51.146;17.162;2024-02-26T04:16:37;98983.14;;;0.46;91.60
38806;BME280;25635;51.146;17.162;2024-02-26T04:19:04;98986.05;;;0.44;91.75
38806;BME280;25635;51.146;17.162;2024-02-26T04:21:31;98984.15;;;0.43;91.80
38806;BME280;25635;51.146;17.162;2024-02-26T04:23:57;98985.52;;;0.42;91.77
38806;BME280;25635;51.146;17.162;2024-02-26T04:26:28;98983.63;;;0.44;91.65
38806;BME280;25635;51.146;17.162;2024-02-26T04:28:55;98980.37;;;0.43;91.60
38806;BME280;25635;51.146;17.162;2024-02-26T04:31:21;98981.05;;;0.43;91.36
38806;BME280;25635;51.146;17.162;2024-02-26T04:33:47;98983.29;;;0.42;91.29
38806;BME280;25635;51.146;17.162;2024-02-26T04:36:15;98988.08;;;0.42;91.35
38806;BME280;25635;51.146;17.162;2024-02-26T04:38:43;98985.66;;;0.42;91.29
38806;BME280;25635;51.146;17.162;2024-02-26T04:41:10;98989.79;;;0.42;91.28
38806;BME280;25635;51.146;17.162;2024-02-26T04:43:38;98992.19;;;0.42;91.06
38806;BME280;25635;51.146;17.162;2024-02-26T04:46:10;98991.84;;;0.41;91.03
38806;BME280;25635;51.146;17.162;2024-02-26T04:48:37;98994.73;;;0.41;91.11
38806;BME280;25635;51.146;17.162;2024-02-26T04:51:04;98992.33;;;0.39;91.04
38806;BME280;25635;51.146;17.162;2024-02-26T04:53:31;98992.64;;;0.37;91.18
38806;BME280;25635;51.146;17.162;2024-02-26T04:55:57;98995.55;;;0.36;91.40
38806;BME280;25635;51.146;17.162;2024-02-26T04:58:23;98999.98;;;0.35;91.33
38806;BME280;25635;51.146;17.162;2024-02-26T05:00:49;98998.42;;;0.34;91.08
38806;BME280;25635;51.146;17.162;2024-02-26T05:03:16;98999.27;;;0.33;91.25
38806;BME280;25635;51.146;17.162;2024-02-26T05:05:45;99000.83;;;0.34;91.44
38806;BME280;25635;51.146;17.162;2024-02-26T05:08:12;99002.05;;;0.35;91.16
38806;BME280;25635;51.146;17.162;2024-02-26T05:10:38;98997.95;;;0.37;91.50
38806;BME280;25635;51.146;17.162;2024-02-26T05:13:09;98994.91;;;0.40;91.53
38806;BME280;25635;51.146;17.162;2024-02-26T05:15:35;98998.05;;;0.44;91.61
38806;BME280;25635;51.146;17.162;2024-02-26T05:18:02;99000.64;;;0.45;91.23
38806;BME280;25635;51.146;17.162;2024-02-26T05:20:33;98999.60;;;0.45;91.07
38806;BME280;25635;51.146;17.162;2024-02-26T05:23:01;98998.05;;;0.44;91.30
38806;BME280;25635;51.146;17.162;2024-02-26T05:25:29;98997.85;;;0.43;91.75
38806;BME280;25635;51.146;17.162;2024-02-26T05:27:56;99001.23;;;0.39;91.76
38806;BME280;25635;51.146;17.162;2024-02-26T05:30:23;99003.30;;;0.38;91.77
38806;BME280;25635;51.146;17.162;2024-02-26T05:32:51;99002.92;;;0.37;91.68
38806;BME280;25635;51.146;17.162;2024-02-26T05:35:17;99002.06;;;0.37;91.72
38806;BME280;25635;51.146;17.162;2024-02-26T05:37:49;98996.75;;;0.36;91.77
38806;BME280;25635;51.146;17.162;2024-02-26T05:40:19;98998.11;;;0.37;91.92
38806;BME280;25635;51.146;17.162;2024-02-26T05:42:45;98999.17;;;0.38;92.15
38806;BME280;25635;51.146;17.162;2024-02-26T05:45:12;99001.05;;;0.38;92.06
38806;BME280;25635;51.146;17.162;2024-02-26T05:47:39;99003.98;;;0.38;92.38
38806;BME280;25635;51.146;17.162;2024-02-26T05:50:21;99006.39;;;0.39;92.43
38806;BME280;25635;51.146;17.162;2024-02-26T05:52:47;99010.86;;;0.40;91.61
38806;BME280;25635;51.146;17.162;2024-02-26T05:55:14;99010.14;;;0.38;91.41
38806;BME280;25635;51.146;17.162;2024-02-26T05:57:47;99011.67;;;0.37;91.27
38806;BME280;25635;51.146;17.162;2024-02-26T06:00:18;99013.75;;;0.38;91.59
38806;BME280;25635;51.146;17.162;2024-02-26T06:02:47;99012.52;;;0.36;91.56
38806;BME280;25635;51.146;17.162;2024-02-26T06:05:23;99018.83;;;0.34;91.56
38806;BME280;25635;51.146;17.162;2024-02-26T06:07:50;99018.13;;;0.33;91.67
38806;BME280;25635;51.146;17.162;2024-02-26T06:10:19;99017.11;;;0.33;91.95
38806;BME280;25635;51.146;17.162;2024-02-26T06:12:47;99021.05;;;0.34;92.23
38806;BME280;25635;51.146;17.162;2024-02-26T06:15:14;99021.95;;;0.35;92.61
38806;BME280;25635;51.146;17.162;2024-02-26T06:17:41;99024.73;;;0.37;93.11
38806;BME280;25635;51.146;17.162;2024-02-26T06:20:08;99029.23;;;0.42;92.91
38806;BME280;25635;51.146;17.162;2024-02-26T06:22:41;99030.67;;;0.47;93.21
38806;BME280;25635;51.146;17.162;2024-02-26T06:25:07;99030.23;;;0.52;93.62
38806;BME280;25635;51.146;17.162;2024-02-26T06:27:34;99026.87;;;0.57;93.89
38806;BME280;25635;51.146;17.162;2024-02-26T06:30:01;99026.58;;;0.63;93.92
38806;BME280;25635;51.146;17.162;2024-02-26T06:32:28;99027.20;;;0.69;94.06
38806;BME280;25635;51.146;17.162;2024-02-26T06:34:55;99027.45;;;0.76;94.37
38806;BME280;25635;51.146;17.162;2024-02-26T06:37:21;99027.23;;;0.85;94.41
38806;BME280;25635;51.146;17.162;2024-02-26T06:39:48;99026.60;;;0.91;94.44
38806;BME280;25635;51.146;17.162;2024-02-26T06:42:14;99033.89;;;0.97;94.28
38806;BME280;25635;51.146;17.162;2024-02-26T06:44:40;99034.29;;;1.02;94.22
38806;BME280;25635;51.146;17.162;2024-02-26T06:47:06;99032.27;;;1.05;94.17
38806;BME280;25635;51.146;17.162;2024-02-26T06:49:32;99033.15;;;1.08;94.31
38806;BME280;25635;51.146;17.162;2024-02-26T06:51:58;99029.58;;;1.10;94.49
38806;BME280;25635;51.146;17.162;2024-02-26T06:54:25;99028.39;;;1.12;94.69
38806;BME280;25635;51.146;17.162;2024-02-26T06:56:51;99029.11;;;1.15;94.99
38806;BME280;25635;51.146;17.162;2024-02-26T06:59:17;99028.13;;;1.18;95.06
38806;BME280;25635;51.146;17.162;2024-02-26T07:01:44;99030.08;;;1.24;95.61
38806;BME280;25635;51.146;17.162;2024-02-26T07:04:10;99029.95;;;1.28;95.65
38806;BME280;25635;51.146;17.162;2024-02-26T07:06:37;99033.42;;;1.32;95.69
38806;BME280;25635;51.146;17.162;2024-02-26T07:09:03;99036.94;;;1.39;95.93
38806;BME280;25635;51.146;17.162;2024-02-26T07:11:29;99041.49;;;1.48;96.36
38806;BME280;25635;51.146;17.162;2024-02-26T07:13:55;99041.75;;;1.56;96.83
38806;BME280;25635;51.146;17.162;2024-02-26T07:16:21;99041.16;;;1.67;97.36
38806;BME280;25635;51.146;17.162;2024-02-26T07:18:47;99042.84;;;1.80;97.96
38806;BME280;25635;51.146;17.162;2024-02-26T07:21:13;99044.98;;;1.92;98.16
38806;BME280;25635;51.146;17.162;2024-02-26T07:23:39;99041.81;;;2.03;98.56
38806;BME280;25635;51.146;17.162;2024-02-26T07:26:06;99039.33;;;2.15;98.49
38806;BME280;25635;51.146;17.162;2024-02-26T07:28:34;99040.61;;;2.27;98.59
38806;BME280;25635;51.146;17.162;2024-02-26T07:31:00;99040.88;;;2.40;98.75
38806;BME280;25635;51.146;17.162;2024-02-26T07:33:27;99035.28;;;2.55;99.20
38806;BME280;25635;51.146;17.162;2024-02-26T07:35:53;99037.08;;;2.69;99.58
38806;BME280;25635;51.146;17.162;2024-02-26T07:38:20;99035.08;;;2.83;99.29
38806;BME280;25635;51.146;17.162;2024-02-26T07:40:46;99035.98;;;2.91;99.17
38806;BME280;25635;51.146;17.162;2024-02-26T07:43:13;99039.65;;;3.03;99.20
38806;BME280;25635;51.146;17.162;2024-02-26T07:45:39;99044.86;;;3.16;99.47
38806;BME280;25635;51.146;17.162;2024-02-26T07:48:06;99045.25;;;3.31;99.89
38806;BME280;25635;51.146;17.162;2024-02-26T07:50:32;99045.12;;;3.48;99.91
38806;BME280;25635;51.146;17.162;2024-02-26T07:52:59;99044.81;;;3.62;99.96
38806;BME280;25635;51.146;17.162;2024-02-26T07:55:25;99044.65;;;3.78;99.96
38806;BME280;25635;51.146;17.162;2024-02-26T07:57:51;99044.83;;;3.97;100.00
38806;BME280;25635;51.146;17.162;2024-02-26T08:00:18;99041.23;;;4.14;100.00
38806;BME280;25635;51.146;17.162;2024-02-26T08:02:44;99042.75;;;4.32;99.92
38806;BME280;25635;51.146;17.162;2024-02-26T08:05:10;99041.17;;;4.50;99.73
38806;BME280;25635;51.146;17.162;2024-02-26T08:07:36;99039.23;;;4.67;99.65
38806;BME280;25635;51.146;17.162;2024-02-26T08:10:02;99041.77;;;4.82;99.07
38806;BME280;25635;51.146;17.162;2024-02-26T08:12:29;99041.38;;;5.01;99.41
38806;BME280;25635;51.146;17.162;2024-02-26T08:14:55;99045.45;;;5.18;98.73
38806;BME280;25635;51.146;17.162;2024-02-26T08:17:22;99043.98;;;5.31;97.90
38806;BME280;25635;51.146;17.162;2024-02-26T08:19:48;99043.23;;;5.47;97.96
38806;BME280;25635;51.146;17.162;2024-02-26T08:22:15;99044.83;;;5.66;97.68
38806;BME280;25635;51.146;17.162;2024-02-26T08:24:44;99043.31;;;5.86;97.37
38806;BME280;25635;51.146;17.162;2024-02-26T08:27:11;99038.91;;;6.00;97.21
38806;BME280;25635;51.146;17.162;2024-02-26T08:29:37;99042.40;;;6.18;96.48
38806;BME280;25635;51.146;17.162;2024-02-26T08:32:04;99043.63;;;6.34;96.22
38806;BME280;25635;51.146;17.162;2024-02-26T08:34:30;99043.11;;;6.52;95.86
38806;BME280;25635;51.146;17.162;2024-02-26T08:36:56;99037.59;;;6.67;95.15
38806;BME280;25635;51.146;17.162;2024-02-26T08:39:23;99037.42;;;6.83;95.11
38806;BME280;25635;51.146;17.162;2024-02-26T08:41:49;99036.36;;;7.00;94.20
38806;BME280;25635;51.146;17.162;2024-02-26T08:44:15;99035.79;;;7.17;93.37
38806;BME280;25635;51.146;17.162;2024-02-26T08:46:42;99034.82;;;7.39;93.41
38806;BME280;25635;51.146;17.162;2024-02-26T08:49:08;99034.54;;;7.59;92.60
38806;BME280;25635;51.146;17.162;2024-02-26T08:51:34;99029.93;;;7.77;92.59
38806;BME280;25635;51.146;17.162;2024-02-26T08:54:00;99028.45;;;7.95;92.40
38806;BME280;25635;51.146;17.162;2024-02-26T08:56:26;99026.08;;;8.12;91.94
38806;BME280;25635;51.146;17.162;2024-02-26T08:58:53;99030.17;;;8.27;91.12
38806;BME280;25635;51.146;17.162;2024-02-26T09:01:21;99033.42;;;8.41;89.64
38806;BME280;25635;51.146;17.162;2024-02-26T09:03:49;99029.73;;;8.54;89.22
38806;BME280;25635;51.146;17.162;2024-02-26T09:06:15;99025.94;;;8.70;88.46
38806;BME280;25635;51.146;17.162;2024-02-26T09:08:42;99023.78;;;8.84;87.63
38806;BME280;25635;51.146;17.162;2024-02-26T09:11:08;99029.75;;;8.98;87.43
38806;BME280;25635;51.146;17.162;2024-02-26T09:13:36;99024.95;;;9.12;86.20
38806;BME280;25635;51.146;17.162;2024-02-26T09:16:02;99026.89;;;9.28;86.65
38806;BME280;25635;51.146;17.162;2024-02-26T09:18:28;99029.56;;;9.41;85.78
38806;BME280;25635;51.146;17.162;2024-02-26T09:20:55;99031.34;;;9.54;85.53
38806;BME280;25635;51.146;17.162;2024-02-26T09:23:21;99030.02;;;9.67;85.52
38806;BME280;25635;51.146;17.162;2024-02-26T09:25:47;99026.88;;;9.82;85.44
38806;BME280;25635;51.146;17.162;2024-02-26T09:28:14;99024.13;;;9.95;84.87
38806;BME280;25635;51.146;17.162;2024-02-26T09:30:44;99023.13;;;10.07;83.94
38806;BME280;25635;51.146;17.162;2024-02-26T09:33:10;99025.98;;;10.19;83.85
38806;BME280;25635;51.146;17.162;2024-02-26T09:35:37;99028.66;;;10.31;83.52
38806;BME280;25635;51.146;17.162;2024-02-26T09:38:04;99026.77;;;10.44;84.09
38806;BME280;25635;51.146;17.162;2024-02-26T09:40:30;99024.63;;;10.60;83.68
38806;BME280;25635;51.146;17.162;2024-02-26T09:43:00;99024.73;;;10.75;83.49
38806;BME280;25635;51.146;17.162;2024-02-26T09:45:28;99020.58;;;10.87;82.12
38806;BME280;25635;51.146;17.162;2024-02-26T09:47:55;99022.72;;;10.97;81.14
38806;BME280;25635;51.146;17.162;2024-02-26T09:50:22;99027.66;;;11.07;80.78
38806;BME280;25635;51.146;17.162;2024-02-26T09:52:49;99023.15;;;11.19;80.61
38806;BME280;25635;51.146;17.162;2024-02-26T09:55:17;99027.00;;;11.30;80.03
38806;BME280;25635;51.146;17.162;2024-02-26T09:57:48;99026.02;;;11.40;78.71
38806;BME280;25635;51.146;17.162;2024-02-26T10:00:21;99028.88;;;11.49;78.00
38806;BME280;25635;51.146;17.162;2024-02-26T10:02:48;99026.91;;;11.56;78.55
38806;BME280;25635;51.146;17.162;2024-02-26T10:05:17;99027.48;;;11.66;78.97
38806;BME280;25635;51.146;17.162;2024-02-26T10:07:47;99030.16;;;11.76;77.91
38806;BME280;25635;51.146;17.162;2024-02-26T10:10:17;99031.36;;;11.82;77.47
38806;BME280;25635;51.146;17.162;2024-02-26T10:12:44;99026.52;;;11.92;77.42
38806;BME280;25635;51.146;17.162;2024-02-26T10:15:10;99031.28;;;12.02;75.41
38806;BME280;25635;51.146;17.162;2024-02-26T10:17:38;99031.70;;;12.10;76.34
38806;BME280;25635;51.146;17.162;2024-02-26T10:20:15;99033.46;;;12.21;76.10
38806;BME280;25635;51.146;17.162;2024-02-26T10:22:41;99034.51;;;12.31;75.47
38806;BME280;25635;51.146;17.162;2024-02-26T10:25:08;99034.96;;;12.39;74.60
38806;BME280;25635;51.146;17.162;2024-02-26T10:27:35;99040.52;;;12.45;73.56
38806;BME280;25635;51.146;17.162;2024-02-26T10:30:03;99039.60;;;12.51;74.32
38806;BME280;25635;51.146;17.162;2024-02-26T10:32:30;99038.20;;;12.57;73.01
38806;BME280;25635;51.146;17.162;2024-02-26T10:34:58;99037.85;;;12.62;73.23
38806;BME280;25635;51.146;17.162;2024-02-26T10:37:24;99042.66;;;12.69;72.53
38806;BME280;25635;51.146;17.162;2024-02-26T10:39:51;99042.19;;;12.73;72.22
38806;BME280;25635;51.146;17.162;2024-02-26T10:42:17;99042.43;;;12.75;72.37
38806;BME280;25635;51.146;17.162;2024-02-26T10:44:45;99046.17;;;12.79;72.24
38806;BME280;25635;51.146;17.162;2024-02-26T10:47:14;99040.23;;;12.84;72.35
38806;BME280;25635;51.146;17.162;2024-02-26T10:49:47;99042.92;;;12.87;70.53
38806;BME280;25635;51.146;17.162;2024-02-26T10:52:15;99043.64;;;12.86;70.23
38806;BME280;25635;51.146;17.162;2024-02-26T10:54:41;99037.63;;;12.88;70.95
38806;BME280;25635;51.146;17.162;2024-02-26T10:57:11;99038.34;;;12.93;70.27
38806;BME280;25635;51.146;17.162;2024-02-26T10:59:39;99038.45;;;12.94;69.98
38806;BME280;25635;51.146;17.162;2024-02-26T11:02:07;99036.00;;;12.94;69.84
38806;BME280;25635;51.146;17.162;2024-02-26T11:04:35;99029.60;;;12.97;69.93
38806;BME280;25635;51.146;17.162;2024-02-26T11:07:02;99028.52;;;13.03;69.76
38806;BME280;25635;51.146;17.162;2024-02-26T11:09:31;99019.64;;;13.06;69.00
38806;BME280;25635;51.146;17.162;2024-02-26T11:11:58;99018.34;;;13.09;68.64
38806;BME280;25635;51.146;17.162;2024-02-26T11:14:26;99017.38;;;13.11;68.68
38806;BME280;25635;51.146;17.162;2024-02-26T11:16:52;99018.75;;;13.12;68.68
38806;BME280;25635;51.146;17.162;2024-02-26T11:19:21;99014.27;;;13.14;69.13
38806;BME280;25635;51.146;17.162;2024-02-26T11:21:49;99012.84;;;13.19;69.27
38806;BME280;25635;51.146;17.162;2024-02-26T11:24:16;99005.95;;;13.22;69.22
38806;BME280;25635;51.146;17.162;2024-02-26T11:26:57;99006.21;;;13.29;68.95
38806;BME280;25635;51.146;17.162;2024-02-26T11:29:29;99005.20;;;13.33;68.21
38806;BME280;25635;51.146;17.162;2024-02-26T11:32:00;99002.57;;;13.38;69.04
38806;BME280;25635;51.146;17.162;2024-02-26T11:34:27;98999.67;;;13.45;69.47
38806;BME280;25635;51.146;17.162;2024-02-26T11:36:53;98998.74;;;13.55;69.24
38806;BME280;25635;51.146;17.162;2024-02-26T11:39:20;99000.19;;;13.63;67.97
38806;BME280;25635;51.146;17.162;2024-02-26T11:41:46;98995.87;;;13.66;67.57
38806;BME280;25635;51.146;17.162;2024-02-26T11:44:12;98998.81;;;13.71;66.95
38806;BME280;25635;51.146;17.162;2024-02-26T11:46:40;98998.65;;;13.71;67.19
38806;BME280;25635;51.146;17.162;2024-02-26T11:51:55;98999.61;;;13.77;66.78
38806;BME280;25635;51.146;17.162;2024-02-26T11:54:43;98994.55;;;13.77;66.93
38806;BME280;25635;51.146;17.162;2024-02-26T11:57:38;98993.29;;;13.77;66.85
38806;BME280;25635;51.146;17.162;2024-02-26T12:00:13;98991.64;;;13.75;66.29
38806;BME280;25635;51.146;17.162;2024-02-26T12:07:46;98994.48;;;13.62;66.01
38806;BME280;25635;51.146;17.162;2024-02-26T12:13:05;98994.45;;;13.57;65.47
38806;BME280;25635;51.146;17.162;2024-02-26T12:15:36;98990.23;;;13.58;65.40
38806;BME280;25635;51.146;17.162;2024-02-26T12:18:18;98989.75;;;13.56;65.62
38806;BME280;25635;51.146;17.162;2024-02-26T12:21:04;98987.47;;;13.57;65.33
38806;BME280;25635;51.146;17.162;2024-02-26T12:23:30;98994.21;;;13.59;65.34
38806;BME280;25635;51.146;17.162;2024-02-26T12:25:59;98993.75;;;13.62;65.77
38806;BME280;25635;51.146;17.162;2024-02-26T12:28:30;98988.75;;;13.64;65.80
38806;BME280;25635;51.146;17.162;2024-02-26T12:30:59;98991.39;;;13.64;64.61
38806;BME280;25635;51.146;17.162;2024-02-26T12:33:27;98992.12;;;13.59;64.40
38806;BME280;25635;51.146;17.162;2024-02-26T12:35:57;98994.05;;;13.58;64.96
38806;BME280;25635;51.146;17.162;2024-02-26T12:38:24;98991.75;;;13.64;65.73
38806;BME280;25635;51.146;17.162;2024-02-26T12:40:50;98989.44;;;13.69;64.93
38806;BME280;25635;51.146;17.162;2024-02-26T12:43:20;98995.83;;;13.67;64.62
38806;BME280;25635;51.146;17.162;2024-02-26T12:45:49;98989.91;;;13.66;64.99
38806;BME280;25635;51.146;17.162;2024-02-26T12:48:16;98993.23;;;13.66;64.73
38806;BME280;25635;51.146;17.162;2024-02-26T12:50:48;98990.14;;;13.65;64.45
38806;BME280;25635;51.146;17.162;2024-02-26T12:53:14;98993.78;;;13.62;64.26
38806;BME280;25635;51.146;17.162;2024-02-26T12:55:57;98995.11;;;13.59;63.79
38806;BME280;25635;51.146;17.162;2024-02-26T12:58:24;98992.09;;;13.55;63.03
38806;BME280;25635;51.146;17.162;2024-02-26T13:00:54;98996.29;;;13.50;63.95
38806;BME280;25635;51.146;17.162;2024-02-26T13:03:22;98998.20;;;13.51;64.33
38806;BME280;25635;51.146;17.162;2024-02-26T13:05:50;98997.05;;;13.49;63.19
38806;BME280;25635;51.146;17.162;2024-02-26T13:08:20;98995.42;;;13.46;63.59
38806;BME280;25635;51.146;17.162;2024-02-26T13:10:47;99000.01;;;13.45;63.64